Estación Meteorológica Peña el Pijo (Robertgarden) [ 07/19/24 13:42:34 CEST ]

Fecha Hora Presion(HPa) Temp (°C) Humedad % Rocio (°C) Viento ( m/s) Direccion Lluvia 1Hora(mm) Lluvia 24H(mm) LLuvia Total(mm)
2008-May-17 01:05:14 1012.700 8.4 93 7.3     3.62 30.04 150.71
2008-May-17 02:05:20 1012.000 7.9 94 7.0     1.03 31.08 151.75
2008-May-17 03:05:33 1011.100 7.2 94 6.3       31.08 151.75
2008-May-17 04:05:14 1010.600 6.6 94 5.7       31.08 151.75
2008-May-17 05:05:14 1010.500 7.0 95 6.2       31.08 151.75
2008-May-17 06:05:14 1010.500 7.2 95 6.5       31.08 151.75
2008-May-17 07:05:25 1010.600 7.5 95 6.8       31.08 151.75
2008-May-17 08:05:23 1010.900 9.1 97 8.6       31.08 151.75
2008-May-17 09:05:14 1010.900 19.1 57 10.4 1.8 S   31.08 151.75
2008-May-17 10:05:13 1011.300 15.9 58 7.7       31.08 151.75
2008-May-17 11:05:12 1011.300 21.1 47 9.3       31.08 151.75
2008-May-17 12:05:16 1011.400 20.6 46 8.5 1.5 WSW   31.08 151.75
2008-May-17 13:05:20 1011.300 20.9 44 8.1       31.08 151.75
2008-May-17 14:05:17 1011.000 20.9 42 7.5 0.8 SW   27.45 151.75
2008-May-17 15:05:18 1011.200 20.8 40 6.7       27.45 151.75
2008-May-17 16:05:13 1010.400 24.3 36 8.2 0.7 SSW   27.45 151.75
2008-May-17 17:05:17 1010.100 26.7 30 7.7       23.31 151.75
2008-May-17 18:05:14 1010.200 27.5 30 8.4 1.5 WSW   8.80 151.75
2008-May-17 19:05:21 1010.600 26.6 28 6.3       7.77 151.75
2008-May-17 20:05:17 1010.700 17.8 41 4.9       7.25 151.75
2008-May-17 21:05:21 1011.700 13.0 61 5.6       6.21 151.75
2008-May-17 22:05:33 1012.300 11.8 71 6.7       6.21 151.75
2008-May-17 23:05:17 1012.900 10.7 79 7.2       5.18 151.75

Temperatura Máxima:27°    Temperatura Mínima:
Presión Máxima:1012.900 Hpa    Presión Mínima:1010.100 Hpa


Volver